Elk Mound, Wisconsin
Current Conditions -  °F | °C
As of 4:15 AM on Friday 31 Oct 2014 (Local Time) from KLUM Reporting Station
Broken Clouds Broken Clouds  
Wind Chill: 19°   Ceiling: 4100
Heat Index: 31°   Visibility: 10mi
Dew Point: 19°   Wind: 21mph
Humidity: 59%   Direction: 330°NNW
Pressure: 30.38"   Gusts: 26mph
Location:  44.87°N, 91.69°W
Report Text: KLUM 310915Z AUTO 33018G23KT 10SM BKN041 00/M07 A3038 RMK AO2 T10031075
Loading
Personal Weather Stations






























Interactive Weather Map
Tropical Storm Tracking
New forecast layout! Learn more

10-Day Weather Forecast

Advertisements
Track Severe Weather on mobile